Franzen, Wisconsin
Current Conditions -  °F | °C
As of 3:35 PM on Friday 19 Dec 2014 (Local Time) from KAIG Reporting Station
Clear Clear  
Wind Chill: 19°   Ceiling: Unl
Heat Index: 25°   Visibility: 10mi
Dew Point: 17°   Wind: 5mph
Humidity: 70%   Direction: 200°SSW
Pressure: 30.21"   Gusts: NA
Location:  44.8179°N, 89.172°W
Report Text: KAIG 192135Z AUTO 20004KT 10SM CLR M04/M09 A3021 RMK AO2 T10381086
Loading
Personal Weather Stations






























Interactive Weather Map New forecast layout! Learn more

10-Day Weather Forecast

Advertisements
Track Severe Weather on mobile